Duluth, MN

7:07 PM CDT on April 21, 2015 (GMT -0500)
Chester Park WX | | Change Station
CLOSE
Current Station
Personal Weather Station
Location: Duluth, MN
Elevation: 1040 ft
Nearby Weather Stations

Elev 1040 ft 46.81 °N, 92.08 °W | Updated 1 minute ago

Overcast
Overcast
30.7 °F
Feels Like 31 °F
N
3.0
Wind Variable Wind from NW
Gusts 3.0 mph

Today
High -- | Low -- °F
--% Chance of Precip.
Yesterday
High -- | Low -- °F
Precip. -- in
6:10 AM 8:04 PM
Waxing Crescent, 13% visible
Pressure 29.60 in
Visibility 8.0 miles
Clouds Mostly Cloudy 2400 ft
Overcast 3000 ft
Windchill 31 °F
Dew Point 26 °F
Humidity 84%
Rainfall 0.00 in
Snow Depth Not available.
UV 0 out of 12
Pollen 4.40 out of 12
Air Quality Not available.
Flu Activity Local Activity
SPECI KDLH 220002Z 32012G21KT 8SM -SN BKN024 OVC030 M01/M05 A2960 RMK AO2 P0000 T10061050

More Conditions Fewer Conditions

Pressure 29.60 in
Visibility 8.0 miles
Clouds Mostly Cloudy 2400 ft
Overcast 3000 ft
Windchill 31 °F
Dew Point 26 °F
Humidity 84%
Rainfall 0.00 in
Snow Depth Not available.
UV 0 out of 12
Pollen 4.40 out of 12
Air Quality Not available.
Flu Activity Local Activity
SPECI KDLH 220002Z 32012G21KT 8SM -SN BKN024 OVC030 M01/M05 A2960 RMK AO2 P0000 T10061050

More Conditions Fewer Conditions

10-Day Weather Forecast

Almanac

Astronomy

Apr. 21, 2015 Rise Set
Actual Time
Civil Twilight
Nautical Twilight
Astronomical Twilight
Moon
Length of Visible Light
Length of Day
Tomorrow will be .
, % of the Moon is Illuminated

Today's Extremes

State Highs State Lows

Community

WunderPhotos

Upload Photos

1,815,586 photos uploaded!

WunderBlogs® & News

Nearby

Air Quality

  Air Quality AQ Index Pollutant
Not available.

Snow Depth

Station Depth Elevation

Earthquake Activity

City Distance Mag. Time & Date
Minimum magnitude displayed is 2.5.

Coastal Water Temperatures

Place Temperature

Stations

Nearby Weather Stations

Station Location Temp. Windchill Dew Point Humidity Wind Precip. Elev Updated Type